PWSweather.com
Personal Weather Stations
Station Observations
KJ4AJP
Beautiful Downtown Gardner, Martin, TN 38237

Beautiful Downtown GardnerMartin, TN 38237

Lat: 36.358, Lon: -88.8994

Elevation: 384.3

Station Type: TP1080WC

http://weather.mambm.com/

Latest ConditionsUpdated 8:30:00 PM CDT Thursday, Aug 16, 2018
Currently Today's Max Today's Min Today's Average
Temperature 82.2°F27.9°C 91.0°F32.8°C 73.4°F23.0°C 80.6°F27.0°C
Dew Point 82.0°F27.8°C 84.9°F29.4°C 73.2°F22.9°C 78.5°F25.8°C
Winds 1.6 mph S2.6 kmh S 8.3 mph -13.4 kmh - - 2.9 mph 4.7 kmh
Wind Gusts 4.5 mph7.2 kmh 17.4 mph28.0 kmh - -
Humidity 99% 99% 79% 94%
Pressure 29.94 in1013.9 mb 29.99 in1015.6 mb 29.90 in1012.5 mb -
Precipitation - 0.47 in11.9 mm - -
Hour Temp Dew Point Humidity Winds Wind Gusts Pressure Precip Precip Rate Daily Precip Total
08:30 PM 82.2°F27.9°C 82.0°F27.8°C 99% 1.6 mph S2.6 kmh S 4.5 mph7.2 kmh 29.94 in1013.9 mb 0.00 in0.0 mm 0.00 in0.0 mm 0.47 in11.9 mm
08:15 PM 82.8°F28.2°C 82.2°F27.9°C 98% 1.6 mph S2.6 kmh S 3.8 mph6.1 kmh 29.93 in1013.5 mb 0.00 in0.0 mm 0.00 in0.0 mm 0.47 in11.9 mm
08:00 PM 83.1°F28.4°C 81.9°F27.7°C 96% 0.7 mph SSE1.1 kmh SSE 5.4 mph8.7 kmh 29.93 in1013.5 mb 0.00 in0.0 mm 0.00 in0.0 mm 0.47 in11.9 mm
07:45 PM 83.8°F28.8°C 82.3°F27.9°C 95% Calm Calm 4.5 mph7.2 kmh 29.93 in1013.5 mb 0.00 in0.0 mm 0.00 in0.0 mm 0.47 in11.9 mm
07:30 PM 84.6°F29.2°C 82.4°F28.0°C 93% 0.7 mph S1.1 kmh S 5.4 mph8.7 kmh 29.93 in1013.5 mb 0.00 in0.0 mm 0.00 in0.0 mm 0.47 in11.9 mm
07:15 PM 85.5°F29.7°C 82.6°F28.1°C 91% 1.6 mph SE2.6 kmh SE 4.5 mph7.2 kmh 29.93 in1013.5 mb 0.00 in0.0 mm 0.00 in0.0 mm 0.47 in11.9 mm
07:00 PM 86.2°F30.1°C 83.0°F28.3°C 90% Calm Calm 2.2 mph3.5 kmh 29.93 in1013.5 mb 0.00 in0.0 mm 0.00 in0.0 mm 0.47 in11.9 mm
06:45 PM 86.9°F30.5°C 83.0°F28.3°C 88% 0.7 mph SSE1.1 kmh SSE 3.8 mph6.1 kmh 29.93 in1013.5 mb 0.00 in0.0 mm 0.00 in0.0 mm 0.47 in11.9 mm
06:30 PM 87.8°F31.0°C 83.2°F28.4°C 86% 1.6 mph S2.6 kmh S 6.0 mph9.7 kmh 29.92 in1013.2 mb 0.00 in0.0 mm 0.00 in0.0 mm 0.47 in11.9 mm
06:15 PM 88.3°F31.3°C 83.7°F28.7°C 86% 1.6 mph SSE2.6 kmh SSE 6.9 mph11.1 kmh 29.92 in1013.2 mb 0.00 in0.0 mm 0.00 in0.0 mm 0.47 in11.9 mm
06:00 PM 88.3°F31.3°C 83.7°F28.7°C 86% 2.2 mph S3.5 kmh S 7.6 mph12.2 kmh 29.92 in1013.2 mb 0.00 in0.0 mm 0.00 in0.0 mm 0.47 in11.9 mm
05:45 PM 88.7°F31.5°C 84.1°F28.9°C 86% 3.8 mph SSW6.1 kmh SSW 8.3 mph13.4 kmh 29.92 in1013.2 mb 0.00 in0.0 mm 0.00 in0.0 mm 0.47 in11.9 mm
05:30 PM 88.9°F31.6°C 83.5°F28.6°C 84% 2.2 mph SW3.5 kmh SW 9.2 mph14.8 kmh 29.92 in1013.2 mb 0.00 in0.0 mm 0.00 in0.0 mm 0.47 in11.9 mm
05:15 PM 89.2°F31.8°C 83.9°F28.8°C 84% 3.8 mph SW6.1 kmh SW 9.2 mph14.8 kmh 29.92 in1013.2 mb 0.00 in0.0 mm 0.00 in0.0 mm 0.47 in11.9 mm
05:00 PM 90.3°F32.4°C 84.2°F29.0°C 82% 5.4 mph SW8.7 kmh SW 9.2 mph14.8 kmh 29.92 in1013.2 mb 0.00 in0.0 mm 0.00 in0.0 mm 0.47 in11.9 mm
04:45 PM 90.9°F32.7°C 84.7°F29.3°C 82% 4.5 mph SW7.2 kmh SW 8.3 mph13.4 kmh 29.92 in1013.2 mb 0.00 in0.0 mm 0.00 in0.0 mm 0.47 in11.9 mm
04:30 PM 91.0°F32.8°C 84.9°F29.4°C 82% 3.1 mph SW5.0 kmh SW 9.2 mph14.8 kmh 29.92 in1013.2 mb 0.00 in0.0 mm 0.00 in0.0 mm 0.47 in11.9 mm
04:15 PM 91.0°F32.8°C 84.9°F29.4°C 82% 1.6 mph SW2.6 kmh SW 8.3 mph13.4 kmh 29.93 in1013.5 mb 0.00 in0.0 mm 0.00 in0.0 mm 0.47 in11.9 mm
04:00 PM 90.9°F32.7°C 84.3°F29.1°C 81% 3.8 mph SW6.1 kmh SW 10.7 mph17.2 kmh 29.92 in1013.2 mb 0.00 in0.0 mm 0.00 in0.0 mm 0.47 in11.9 mm
03:45 PM 90.7°F32.6°C 84.1°F28.9°C 81% 6.0 mph SW9.7 kmh SW 10.7 mph17.2 kmh 29.92 in1013.2 mb 0.00 in0.0 mm 0.00 in0.0 mm 0.47 in11.9 mm
03:30 PM 90.1°F32.3°C 83.6°F28.7°C 81% 6.0 mph WSW9.7 kmh WSW 12.1 mph19.5 kmh 29.93 in1013.5 mb 0.00 in0.0 mm 0.00 in0.0 mm 0.47 in11.9 mm
03:15 PM 89.8°F32.1°C 83.3°F28.5°C 81% 6.0 mph SW9.7 kmh SW 10.7 mph17.2 kmh 29.93 in1013.5 mb 0.00 in0.0 mm 0.00 in0.0 mm 0.47 in11.9 mm
03:00 PM 90.3°F32.4°C 83.0°F28.3°C 79% 6.9 mph SW11.1 kmh SW 13.0 mph20.9 kmh 29.93 in1013.5 mb 0.00 in0.0 mm 0.00 in0.0 mm 0.47 in11.9 mm
02:45 PM 90.7°F32.6°C 83.4°F28.6°C 79% 4.5 mph SW7.2 kmh SW 9.2 mph14.8 kmh 29.93 in1013.5 mb 0.00 in0.0 mm 0.00 in0.0 mm 0.47 in11.9 mm
02:30 PM 89.8°F32.1°C 83.3°F28.5°C 81% 4.5 mph SSW7.2 kmh SSW 11.4 mph18.3 kmh 29.93 in1013.5 mb 0.00 in0.0 mm 0.00 in0.0 mm 0.47 in11.9 mm
02:15 PM 88.9°F31.6°C 82.4°F28.0°C 81% 4.5 mph SSW7.2 kmh SSW 11.4 mph18.3 kmh 29.94 in1013.9 mb 0.00 in0.0 mm 0.00 in0.0 mm 0.47 in11.9 mm
02:00 PM 87.4°F30.8°C 82.5°F28.1°C 85% 3.1 mph SW5.0 kmh SW 12.1 mph19.5 kmh 29.94 in1013.9 mb 0.00 in0.0 mm 0.00 in0.0 mm 0.47 in11.9 mm
01:45 PM 86.2°F30.1°C 81.6°F27.6°C 86% 3.1 mph SW5.0 kmh SW 13.0 mph20.9 kmh 29.95 in1014.2 mb 0.00 in0.0 mm 0.00 in0.0 mm 0.47 in11.9 mm
01:30 PM 85.1°F29.5°C 80.9°F27.2°C 87% 4.5 mph SW7.2 kmh SW 12.1 mph19.5 kmh 29.95 in1014.2 mb 0.00 in0.0 mm 0.00 in0.0 mm 0.47 in11.9 mm
01:15 PM 84.2°F29.0°C 80.3°F26.8°C 88% 4.5 mph S7.2 kmh S 11.4 mph18.3 kmh 29.96 in1014.6 mb 0.00 in0.0 mm 0.00 in0.0 mm 0.47 in11.9 mm
01:00 PM 82.9°F28.3°C 79.4°F26.3°C 89% 6.9 mph SW11.1 kmh SW 11.4 mph18.3 kmh 29.97 in1014.9 mb 0.00 in0.0 mm 0.00 in0.0 mm 0.47 in11.9 mm
12:45 PM 82.2°F27.9°C 78.4°F25.8°C 88% 6.0 mph SW9.7 kmh SW 15.9 mph25.6 kmh 29.97 in1014.9 mb 0.00 in0.0 mm 0.00 in0.0 mm 0.47 in11.9 mm
12:30 PM 82.2°F27.9°C 78.7°F25.9°C 89% 3.8 mph SW6.1 kmh SW 12.1 mph19.5 kmh 29.96 in1014.6 mb 0.00 in0.0 mm 0.00 in0.0 mm 0.47 in11.9 mm
12:15 PM 81.9°F27.7°C 78.4°F25.8°C 89% 8.3 mph SW13.4 kmh SW 15.2 mph24.5 kmh 29.97 in1014.9 mb 0.00 in0.0 mm 0.00 in0.0 mm 0.47 in11.9 mm
12:00 PM 80.8°F27.1°C 78.3°F25.7°C 92% 5.4 mph SW8.7 kmh SW 13.0 mph20.9 kmh 29.97 in1014.9 mb 0.00 in0.0 mm 0.00 in0.0 mm 0.47 in11.9 mm
11:45 AM 79.7°F26.5°C 77.6°F25.3°C 93% 4.5 mph SSW7.2 kmh SSW 14.5 mph23.3 kmh 29.97 in1014.9 mb 0.00 in0.0 mm 0.00 in0.0 mm 0.47 in11.9 mm
11:30 AM 79.5°F26.4°C 78.0°F25.6°C 95% 4.5 mph SW7.2 kmh SW 9.8 mph15.8 kmh 29.97 in1014.9 mb 0.00 in0.0 mm 0.00 in0.0 mm 0.47 in11.9 mm
11:15 AM 78.4°F25.8°C 77.6°F25.3°C 97% 5.4 mph SW8.7 kmh SW 14.5 mph23.3 kmh 29.97 in1014.9 mb 0.00 in0.0 mm 0.00 in0.0 mm 0.47 in11.9 mm
11:00 AM 77.2°F25.1°C 76.9°F24.9°C 99% 7.6 mph SW12.2 kmh SW 12.1 mph19.5 kmh 29.98 in1015.2 mb 0.00 in0.0 mm 0.00 in0.0 mm 0.47 in11.9 mm
10:45 AM 75.9°F24.4°C 75.7°F24.3°C 99% 3.1 mph S5.0 kmh S 14.5 mph23.3 kmh 29.97 in1014.9 mb 0.00 in0.0 mm 0.00 in0.0 mm 0.47 in11.9 mm
10:30 AM 75.2°F24.0°C 75.0°F23.9°C 99% 2.2 mph S3.5 kmh S 13.0 mph20.9 kmh 29.98 in1015.2 mb 0.00 in0.0 mm 0.00 in0.0 mm 0.47 in11.9 mm
10:15 AM 74.8°F23.8°C 74.6°F23.7°C 99% 3.1 mph SSW5.0 kmh SSW 13.6 mph21.9 kmh 29.99 in1015.6 mb 0.00 in0.0 mm 0.00 in0.0 mm 0.47 in11.9 mm
10:00 AM 74.3°F23.5°C 74.1°F23.4°C 99% 3.1 mph SW5.0 kmh SW 16.8 mph27.0 kmh 29.98 in1015.2 mb 0.00 in0.0 mm 0.00 in0.0 mm 0.47 in11.9 mm
09:45 AM 73.9°F23.3°C 73.7°F23.2°C 99% 4.5 mph SW7.2 kmh SW 14.5 mph23.3 kmh 29.96 in1014.6 mb 0.00 in0.0 mm 0.00 in0.0 mm 0.47 in11.9 mm
09:30 AM 73.8°F23.2°C 73.5°F23.1°C 99% 6.0 mph SW9.7 kmh SW 17.4 mph28.0 kmh 29.96 in1014.6 mb 0.00 in0.0 mm 0.00 in0.0 mm 0.47 in11.9 mm
09:15 AM 73.8°F23.2°C 73.5°F23.1°C 99% 8.3 mph SW13.4 kmh SW 15.9 mph25.6 kmh 29.95 in1014.2 mb 0.00 in0.0 mm 0.00 in0.0 mm 0.47 in11.9 mm
09:00 AM 73.4°F23.0°C 73.2°F22.9°C 99% 8.3 mph SW13.4 kmh SW 13.0 mph20.9 kmh 29.95 in1014.2 mb 0.01 in0.3 mm 0.00 in0.0 mm 0.47 in11.9 mm
08:45 AM 73.4°F23.0°C 73.2°F22.9°C 99% 5.4 mph SSW8.7 kmh SSW 9.2 mph14.8 kmh 29.96 in1014.6 mb 0.04 in1.0 mm 0.00 in0.0 mm 0.47 in11.9 mm
08:30 AM 73.4°F23.0°C 73.2°F22.9°C 99% 1.6 mph S2.6 kmh S 7.6 mph12.2 kmh 29.96 in1014.6 mb 0.06 in1.5 mm 0.00 in0.0 mm 0.47 in11.9 mm
08:15 AM 73.6°F23.1°C 73.3°F22.9°C 99% 6.0 mph S9.7 kmh S 11.4 mph18.3 kmh 29.96 in1014.6 mb 0.08 in2.0 mm 0.04 in1.0 mm 0.47 in11.9 mm
08:00 AM 73.6°F23.1°C 73.3°F22.9°C 99% 2.2 mph SW3.5 kmh SW 6.9 mph11.1 kmh 29.97 in1014.9 mb 0.07 in1.8 mm 0.00 in0.0 mm 0.46 in11.7 mm
07:45 AM 73.8°F23.2°C 73.5°F23.1°C 99% 1.6 mph SW2.6 kmh SW 8.3 mph13.4 kmh 29.97 in1014.9 mb 0.07 in1.8 mm 0.04 in1.0 mm 0.44 in11.2 mm
07:30 AM 73.8°F23.2°C 73.5°F23.1°C 99% 1.6 mph S2.6 kmh S 7.6 mph12.2 kmh 29.97 in1014.9 mb 0.06 in1.5 mm 0.08 in2.0 mm 0.41 in10.4 mm
07:15 AM 73.9°F23.3°C 73.7°F23.2°C 99% 1.6 mph SW2.6 kmh SW 6.0 mph9.7 kmh 29.96 in1014.6 mb 0.04 in1.0 mm 0.00 in0.0 mm 0.39 in9.9 mm
07:00 AM 74.5°F23.6°C 74.2°F23.4°C 99% 3.1 mph SW5.0 kmh SW 6.9 mph11.1 kmh 29.95 in1014.2 mb 0.04 in1.0 mm 0.04 in1.0 mm 0.39 in9.9 mm
06:45 AM 74.8°F23.8°C 74.6°F23.7°C 99% 2.2 mph SW3.5 kmh SW 10.7 mph17.2 kmh 29.95 in1014.2 mb 0.01 in0.3 mm 0.00 in0.0 mm 0.37 in9.4 mm
06:30 AM 75.2°F24.0°C 75.0°F23.9°C 99% 4.5 mph SW7.2 kmh SW 10.7 mph17.2 kmh 29.96 in1014.6 mb 0.01 in0.3 mm 0.00 in0.0 mm 0.35 in8.9 mm
06:15 AM 75.0°F23.9°C 74.8°F23.8°C 99% 3.8 mph SW6.1 kmh SW 8.3 mph13.4 kmh 29.95 in1014.2 mb 0.01 in0.3 mm 0.00 in0.0 mm 0.35 in8.9 mm
06:00 AM 74.8°F23.8°C 74.6°F23.7°C 99% 1.6 mph SSE2.6 kmh SSE 4.5 mph7.2 kmh 29.95 in1014.2 mb 0.01 in0.3 mm 0.00 in0.0 mm 0.35 in8.9 mm
05:45 AM 74.8°F23.8°C 74.6°F23.7°C 99% 1.6 mph SSE2.6 kmh SSE 6.0 mph9.7 kmh 29.93 in1013.5 mb 0.01 in0.3 mm 0.04 in1.0 mm 0.35 in8.9 mm
05:30 AM 74.8°F23.8°C 74.6°F23.7°C 99% 0.7 mph SSW1.1 kmh SSW 3.1 mph5.0 kmh 29.94 in1013.9 mb 0.00 in0.0 mm 0.00 in0.0 mm 0.34 in8.6 mm
05:15 AM 74.8°F23.8°C 74.6°F23.7°C 99% 0.7 mph SW1.1 kmh SW 3.8 mph6.1 kmh 29.93 in1013.5 mb 0.00 in0.0 mm 0.00 in0.0 mm 0.34 in8.6 mm
05:00 AM 74.7°F23.7°C 74.4°F23.6°C 99% Calm Calm 3.8 mph6.1 kmh 29.92 in1013.2 mb 0.00 in0.0 mm 0.00 in0.0 mm 0.34 in8.6 mm
04:45 AM 74.7°F23.7°C 74.4°F23.6°C 99% 2.2 mph E3.5 kmh E 3.8 mph6.1 kmh 29.92 in1013.2 mb 0.04 in1.0 mm 0.00 in0.0 mm 0.34 in8.6 mm
04:30 AM 74.7°F23.7°C 74.4°F23.6°C 99% Calm Calm 3.1 mph5.0 kmh 29.91 in1012.9 mb 0.28 in7.1 mm 0.00 in0.0 mm 0.34 in8.6 mm
04:15 AM 74.8°F23.8°C 74.6°F23.7°C 99% 0.7 mph SSW1.1 kmh SSW 3.1 mph5.0 kmh 29.91 in1012.9 mb 0.33 in8.4 mm 0.00 in0.0 mm 0.34 in8.6 mm
04:00 AM 75.0°F23.9°C 74.8°F23.8°C 99% 1.6 mph SW2.6 kmh SW 8.3 mph13.4 kmh 29.90 in1012.5 mb 0.34 in8.6 mm 0.04 in1.0 mm 0.34 in8.6 mm
03:45 AM 75.6°F24.2°C 75.3°F24.1°C 99% 3.8 mph SW6.1 kmh SW 12.1 mph19.5 kmh 29.92 in1013.2 mb 0.31 in7.9 mm 1.00 in25.4 mm 0.31 in7.9 mm
03:30 AM 76.5°F24.7°C 76.2°F24.6°C 99% 3.1 mph WSW5.0 kmh WSW 7.6 mph12.2 kmh 29.94 in1013.9 mb 0.06 in1.5 mm 0.20 in5.1 mm 0.06 in1.5 mm
03:15 AM 77.0°F25.0°C 76.8°F24.9°C 99% 0.7 mph NW1.1 kmh NW 4.5 mph7.2 kmh 29.92 in1013.2 mb 0.01 in0.3 mm 0.04 in1.0 mm 0.01 in0.3 mm
03:00 AM 77.4°F25.2°C 77.1°F25.1°C 99% 0.7 mph NNW1.1 kmh NNW 3.8 mph6.1 kmh 29.92 in1013.2 mb 0.00 in0.0 mm 0.00 in0.0 mm 0.00 in0.0 mm
02:45 AM 77.5°F25.3°C 77.3°F25.2°C 99% Calm Calm 3.1 mph5.0 kmh 29.93 in1013.5 mb 0.00 in0.0 mm 0.00 in0.0 mm 0.00 in0.0 mm
02:30 AM 77.7°F25.4°C 77.5°F25.3°C 99% 0.7 mph NW1.1 kmh NW 3.1 mph5.0 kmh 29.92 in1013.2 mb 0.00 in0.0 mm 0.00 in0.0 mm 0.00 in0.0 mm
02:15 AM 77.9°F25.5°C 77.7°F25.4°C 99% Calm Calm 1.6 mph2.6 kmh 29.91 in1012.9 mb 0.00 in0.0 mm 0.00 in0.0 mm 0.00 in0.0 mm
02:00 AM 78.1°F25.6°C 77.8°F25.4°C 99% 0.7 mph N1.1 kmh N 1.6 mph2.6 kmh 29.90 in1012.5 mb 0.00 in0.0 mm 0.00 in0.0 mm 0.00 in0.0 mm
01:45 AM 78.1°F25.6°C 77.8°F25.4°C 99% 0.7 mph N1.1 kmh N 4.5 mph7.2 kmh 29.90 in1012.5 mb 0.00 in0.0 mm 0.00 in0.0 mm 0.00 in0.0 mm
01:30 AM 78.1°F25.6°C 77.8°F25.4°C 99% Calm Calm 1.6 mph2.6 kmh 29.90 in1012.5 mb 0.00 in0.0 mm 0.00 in0.0 mm 0.00 in0.0 mm
01:15 AM 78.3°F25.7°C 78.0°F25.6°C 99% Calm Calm 0.7 mph1.1 kmh 29.91 in1012.9 mb 0.00 in0.0 mm 0.00 in0.0 mm 0.00 in0.0 mm
01:00 AM 78.3°F25.7°C 78.0°F25.6°C 99% Calm Calm -- 29.91 in1012.9 mb 0.00 in0.0 mm 0.00 in0.0 mm 0.00 in0.0 mm
12:45 AM 78.4°F25.8°C 78.2°F25.7°C 99% Calm Calm 0.7 mph1.1 kmh 29.91 in1012.9 mb 0.00 in0.0 mm 0.00 in0.0 mm 0.00 in0.0 mm
12:30 AM 78.6°F25.9°C 78.4°F25.8°C 99% Calm Calm 1.6 mph2.6 kmh 29.90 in1012.5 mb 0.00 in0.0 mm 0.00 in0.0 mm 0.00 in0.0 mm
12:15 AM 78.8°F26.0°C 78.6°F25.9°C 99% 1.6 mph SE2.6 kmh SE 3.1 mph5.0 kmh 29.92 in1013.2 mb 0.00 in0.0 mm 0.00 in0.0 mm 0.00 in0.0 mm
12:00 AM 79.2°F26.2°C 78.6°F25.9°C 98% Calm Calm 2.2 mph3.5 kmh 29.92 in1013.2 mb 0.00 in0.0 mm 0.00 in0.0 mm 0.00 in0.0 mm